createdAt,value
2023-04-19T00:00:00.875Z,89.69
2023-04-19T00:02:04.348Z,90.18
2023-04-19T00:04:08.120Z,90.35
2023-04-19T00:06:14.458Z,89.67
2023-04-19T00:08:17.547Z,90.14
2023-04-19T00:10:20.936Z,89.79
2023-04-19T00:12:25.351Z,89.80
2023-04-19T00:14:28.427Z,90.72
2023-04-19T00:16:31.649Z,89.58
2023-04-19T00:18:34.763Z,89.14
2023-04-19T00:20:37.800Z,90.02
2023-04-19T00:22:41.083Z,89.03
2023-04-19T00:24:44.139Z,88.79
2023-04-19T00:26:47.109Z,90.71
2023-04-19T00:28:51.475Z,90.59
2023-04-19T00:30:54.602Z,90.49
2023-04-19T00:32:57.699Z,89.76
2023-04-19T00:35:01.254Z,90.08
2023-04-19T00:37:05.297Z,90.22
2023-04-19T00:39:09.035Z,89.32
2023-04-19T00:41:14.643Z,90.16
2023-04-19T00:43:19.681Z,89.07
2023-04-19T00:45:24.106Z,90.22
2023-04-19T00:47:27.747Z,89.32
2023-04-19T00:49:31.007Z,88.80
2023-04-19T00:51:34.378Z,88.23
2023-04-19T00:53:37.856Z,89.10
2023-04-19T00:55:41.023Z,88.34
2023-04-19T00:57:44.113Z,90.22
2023-04-19T00:59:47.276Z,89.60
2023-04-19T01:01:51.794Z,90.45
2023-04-19T01:03:55.042Z,90.59
2023-04-19T01:05:58.264Z,89.39
2023-04-19T01:08:01.481Z,90.01
2023-04-19T01:10:04.677Z,89.58
2023-04-19T01:12:07.949Z,89.89
2023-04-19T01:14:11.010Z,90.19
2023-04-19T01:16:14.688Z,90.48
2023-04-19T01:18:20.466Z,90.03
2023-04-19T01:20:23.763Z,88.57
2023-04-19T01:22:28.468Z,88.05
2023-04-19T01:24:31.889Z,89.73
2023-04-19T01:26:34.924Z,87.95
2023-04-19T01:28:39.195Z,88.62
2023-04-19T01:30:42.325Z,88.78
2023-04-19T01:32:45.408Z,87.03
2023-04-19T01:34:49.344Z,88.91
2023-04-19T01:36:52.359Z,87.97
2023-04-19T01:38:56.973Z,88.22
2023-04-19T01:41:00.133Z,87.46
2023-04-19T01:43:03.305Z,88.02
2023-04-19T01:45:07.511Z,87.79
2023-04-19T01:47:10.922Z,88.10
2023-04-19T01:49:17.017Z,87.32
2023-04-19T01:51:21.796Z,87.91
2023-04-19T01:53:25.027Z,87.20
2023-04-19T01:55:30.350Z,88.97
2023-04-19T01:57:33.446Z,88.05
2023-04-19T01:59:36.506Z,86.97
2023-04-19T02:01:39.585Z,87.07
2023-04-19T02:03:42.976Z,87.69
2023-04-19T02:05:46.508Z,87.98
2023-04-19T02:07:49.586Z,87.27
2023-04-19T02:09:52.810Z,88.02
2023-04-19T02:11:57.752Z,88.20
2023-04-19T02:14:00.807Z,88.55
2023-04-19T02:16:04.175Z,87.18
2023-04-19T02:18:08.224Z,87.31
2023-04-19T02:20:11.931Z,88.47
2023-04-19T02:22:15.285Z,88.99
2023-04-19T02:24:18.434Z,87.59
2023-04-19T02:26:21.756Z,88.45
2023-04-19T02:28:26.258Z,88.23
2023-04-19T02:30:29.241Z,88.29
2023-04-19T02:32:32.572Z,89.40
2023-04-19T02:34:36.010Z,87.97
2023-04-19T02:36:39.118Z,87.64
2023-04-19T02:38:42.190Z,88.90
2023-04-19T02:40:45.198Z,88.31
2023-04-19T02:42:48.290Z,88.99
2023-04-19T02:44:52.706Z,87.53
2023-04-19T02:46:59.544Z,87.74
2023-04-19T02:49:02.774Z,87.22
2023-04-19T02:51:06.350Z,87.21
2023-04-19T02:53:09.638Z,87.92
2023-04-19T02:55:12.749Z,88.25
2023-04-19T02:57:16.013Z,86.71
2023-04-19T02:59:20.195Z,87.41
2023-04-19T03:01:25.031Z,88.60
2023-04-19T03:03:28.200Z,88.69
2023-04-19T03:05:31.428Z,88.48
2023-04-19T03:07:34.559Z,86.74
2023-04-19T03:09:37.692Z,87.56
2023-04-19T03:11:40.790Z,86.48
2023-04-19T03:13:44.152Z,87.91
2023-04-19T03:15:49.115Z,87.39
2023-04-19T03:17:54.988Z,88.45
2023-04-19T03:19:58.860Z,87.23
2023-04-19T03:22:02.977Z,88.48
2023-04-19T03:24:08.574Z,87.09
2023-04-19T03:26:14.910Z,87.32
2023-04-19T03:28:21.718Z,88.17
2023-04-19T03:30:43.014Z,88.81
2023-04-19T03:32:47.732Z,88.60
2023-04-19T03:34:52.852Z,88.08
2023-04-19T03:36:56.111Z,88.85
2023-04-19T03:38:59.170Z,88.30
2023-04-19T03:41:03.326Z,87.91
2023-04-19T03:43:11.015Z,87.34
2023-04-19T03:45:14.082Z,89.22
2023-04-19T03:47:22.128Z,89.20
2023-04-19T03:49:27.040Z,88.98
2023-04-19T03:51:40.314Z,88.25
2023-04-19T03:53:43.755Z,89.10
2023-04-19T03:55:47.008Z,89.34
2023-04-19T03:57:50.156Z,89.30
2023-04-19T03:59:58.771Z,89.29
2023-04-19T04:02:01.993Z,89.31
2023-04-19T04:04:05.749Z,89.02
2023-04-19T04:06:09.132Z,90.09
2023-04-19T04:08:13.931Z,88.95
2023-04-19T04:10:17.181Z,89.83
2023-04-19T04:12:20.346Z,89.93
2023-04-19T04:14:24.955Z,89.94
2023-04-19T04:16:28.131Z,89.41
2023-04-19T04:18:32.203Z,89.60
2023-04-19T04:20:36.670Z,90.06
2023-04-19T04:22:46.142Z,89.49
2023-04-19T04:24:53.902Z,89.65
2023-04-19T04:27:00.992Z,90.18
2023-04-19T04:29:06.839Z,89.63
2023-04-19T04:31:12.979Z,90.20
2023-04-19T04:33:17.459Z,89.80
2023-04-19T04:35:21.208Z,90.00
2023-04-19T04:37:37.941Z,90.26
2023-04-19T04:39:41.709Z,89.37
2023-04-19T04:41:49.608Z,90.00
2023-04-19T04:44:08.272Z,89.93
2023-04-19T04:46:15.456Z,89.24
2023-04-19T04:48:19.031Z,89.92
2023-04-19T04:50:22.221Z,89.39
2023-04-19T04:52:26.327Z,89.36
2023-04-19T04:54:42.609Z,89.17
2023-04-19T04:56:57.304Z,89.18
2023-04-19T04:59:00.436Z,89.25
2023-04-19T05:01:08.803Z,89.19
2023-04-19T05:03:15.772Z,88.93
2023-04-19T05:05:24.799Z,88.86
2023-04-19T05:07:27.836Z,88.50
2023-04-19T05:09:32.395Z,88.24
2023-04-19T05:11:35.751Z,88.63
2023-04-19T05:13:40.669Z,87.74
2023-04-19T05:15:43.825Z,87.97
2023-04-19T05:17:46.898Z,88.49
2023-04-19T05:19:51.095Z,87.77
2023-04-19T05:21:54.335Z,87.69
2023-04-19T05:23:57.433Z,86.24
2023-04-19T05:26:00.562Z,87.42
2023-04-19T05:28:05.080Z,85.20
2023-04-19T05:30:18.423Z,86.63
2023-04-19T05:32:22.116Z,84.47
2023-04-19T05:34:33.464Z,83.61
2023-04-19T05:36:37.498Z,81.59
2023-04-19T05:38:43.399Z,81.72
2023-04-19T05:40:46.654Z,80.09
2023-04-19T05:42:49.713Z,79.51
2023-04-19T05:44:54.405Z,80.66
2023-04-19T05:46:58.966Z,80.72
2023-04-19T05:49:25.043Z,78.21
2023-04-19T05:51:51.052Z,76.71
2023-04-19T05:54:07.508Z,76.42
2023-04-19T05:56:10.729Z,75.64
2023-04-19T05:58:13.761Z,76.37
2023-04-19T06:00:18.129Z,75.30
2023-04-19T06:02:32.555Z,74.48
2023-04-19T06:04:36.394Z,73.60
2023-04-19T06:06:39.737Z,72.80
2023-04-19T06:08:42.819Z,70.97
2023-04-19T06:10:54.755Z,72.74
2023-04-19T06:13:01.741Z,72.80
2023-04-19T06:15:05.863Z,73.14
2023-04-19T06:17:09.307Z,73.89
2023-04-19T06:19:13.960Z,74.74
2023-04-19T06:21:17.395Z,74.84
2023-04-19T06:23:20.534Z,76.03
2023-04-19T06:25:23.538Z,75.69
2023-04-19T06:27:27.252Z,75.82
2023-04-19T06:29:30.283Z,74.79
2023-04-19T06:31:33.676Z,75.17
2023-04-19T06:33:36.798Z,74.35
2023-04-19T06:35:41.437Z,74.84
2023-04-19T06:37:44.609Z,75.72
2023-04-19T06:39:47.649Z,75.03
2023-04-19T06:41:50.677Z,74.46
2023-04-19T06:43:53.802Z,76.17
2023-04-19T06:46:00.182Z,75.95
2023-04-19T06:48:03.587Z,76.65
2023-04-19T06:50:08.061Z,76.44
2023-04-19T06:52:12.575Z,75.99
2023-04-19T06:54:15.964Z,75.52
2023-04-19T06:56:19.387Z,74.63
2023-04-19T06:58:22.445Z,74.21
2023-04-19T07:00:25.707Z,74.07
2023-04-19T07:02:28.911Z,74.94
2023-04-19T07:04:32.180Z,74.03
2023-04-19T07:06:35.726Z,71.73
2023-04-19T07:08:49.185Z,72.38
2023-04-19T07:10:53.531Z,73.11
2023-04-19T07:12:56.545Z,73.92
2023-04-19T07:14:59.544Z,72.58
2023-04-19T07:17:02.610Z,73.32
2023-04-19T07:19:05.724Z,73.76
2023-04-19T07:21:08.782Z,74.17
2023-04-19T07:23:12.303Z,71.73
2023-04-19T07:25:16.819Z,73.69
2023-04-19T07:27:19.853Z,70.79
2023-04-19T07:29:22.992Z,69.85
2023-04-19T07:31:26.809Z,68.02
2023-04-19T07:33:29.958Z,69.30
2023-04-19T07:35:33.073Z,68.53
2023-04-19T07:37:36.280Z,67.11
2023-04-19T07:39:39.480Z,66.99
2023-04-19T07:41:43.860Z,68.38
2023-04-19T07:43:46.939Z,70.18
2023-04-19T07:45:50.081Z,69.57
2023-04-19T07:47:53.446Z,70.29
2023-04-19T07:49:56.902Z,69.39
2023-04-19T07:52:00.052Z,69.31
2023-04-19T07:54:03.525Z,70.96
2023-04-19T07:56:08.130Z,70.46
2023-04-19T07:58:12.775Z,71.12
2023-04-19T08:00:16.514Z,71.88
2023-04-19T08:02:19.842Z,71.99
2023-04-19T08:04:23.536Z,73.16
2023-04-19T08:06:27.759Z,73.96
2023-04-19T08:08:30.918Z,73.60
2023-04-19T08:10:35.817Z,73.39
2023-04-19T08:12:47.282Z,73.68
2023-04-19T08:15:02.695Z,73.87
2023-04-19T08:17:25.604Z,74.45
2023-04-19T08:19:31.437Z,76.70
2023-04-19T08:21:40.673Z,76.17
2023-04-19T08:23:48.602Z,76.83
2023-04-19T08:25:52.219Z,77.38
2023-04-19T08:27:55.499Z,78.06
2023-04-19T08:29:59.958Z,78.16
2023-04-19T08:32:03.255Z,77.52
2023-04-19T08:34:06.558Z,78.22
2023-04-19T08:36:10.513Z,77.96
2023-04-19T08:38:13.802Z,77.84
2023-04-19T08:40:18.138Z,78.63
2023-04-19T08:42:33.255Z,76.87
2023-04-19T08:44:59.070Z,76.21
2023-04-19T08:47:06.449Z,77.41
2023-04-19T08:49:09.899Z,77.03
2023-04-19T08:51:13.723Z,78.33
2023-04-19T08:53:24.597Z,74.83
2023-04-19T08:55:29.598Z,75.87
2023-04-19T08:57:33.113Z,74.53
2023-04-19T08:59:36.451Z,74.89
2023-04-19T09:01:40.547Z,73.88
2023-04-19T09:04:00.400Z,74.96
2023-04-19T09:06:07.036Z,75.54
2023-04-19T09:08:23.693Z,75.85
2023-04-19T09:10:27.268Z,74.91
2023-04-19T09:12:30.344Z,74.42
2023-04-19T09:14:33.386Z,74.46
2023-04-19T09:16:37.424Z,75.11
2023-04-19T09:19:08.193Z,76.46
2023-04-19T09:21:28.920Z,77.00
2023-04-19T09:23:31.966Z,76.29
2023-04-19T09:25:49.235Z,75.14
2023-04-19T09:28:10.624Z,75.56
2023-04-19T09:30:24.169Z,75.46
2023-04-19T09:32:47.489Z,76.34
2023-04-19T09:34:56.268Z,75.42
2023-04-19T09:37:08.929Z,75.46
2023-04-19T09:39:29.541Z,76.50
2023-04-19T09:41:33.679Z,77.61
2023-04-19T09:44:01.579Z,77.65
2023-04-19T09:46:00.347Z,78.91
2023-04-19T09:48:05.376Z,77.96
2023-04-19T09:50:22.659Z,78.46
2023-04-19T09:52:28.386Z,78.59
2023-04-19T09:54:32.701Z,77.35
2023-04-19T09:56:37.240Z,78.56
2023-04-19T09:58:51.177Z,78.38
2023-04-19T10:01:10.800Z,77.12
2023-04-19T10:03:18.692Z,77.27
2023-04-19T10:05:24.066Z,77.26
2023-04-19T10:07:30.508Z,77.60
2023-04-19T10:09:42.577Z,77.68
2023-04-19T10:11:58.148Z,78.68
2023-04-19T10:14:08.423Z,77.30
2023-04-19T10:16:18.920Z,77.18
2023-04-19T10:18:23.137Z,77.24
2023-04-19T10:20:32.608Z,77.89
2023-04-19T10:22:37.674Z,77.53
2023-04-19T10:24:42.762Z,78.45
2023-04-19T10:27:07.381Z,78.51
2023-04-19T10:29:10.541Z,78.97
2023-04-19T10:31:14.096Z,79.16
2023-04-19T10:33:25.818Z,79.46
2023-04-19T10:35:35.638Z,79.50
2023-04-19T10:37:41.718Z,80.68
2023-04-19T10:39:46.049Z,81.50
2023-04-19T10:41:59.418Z,80.90
2023-04-19T10:44:12.711Z,81.06
2023-04-19T10:46:17.750Z,81.71
2023-04-19T10:48:34.103Z,81.67
2023-04-19T10:51:00.343Z,83.45
2023-04-19T10:53:36.165Z,83.45
2023-04-19T10:55:51.411Z,82.46
2023-04-19T10:58:05.485Z,84.97
2023-04-19T11:00:21.579Z,85.35
2023-04-19T11:02:32.708Z,86.52
2023-04-19T11:05:01.121Z,85.67
2023-04-19T11:07:07.683Z,87.68
2023-04-19T11:09:12.196Z,88.85
2023-04-19T11:11:15.686Z,87.65
2023-04-19T11:13:18.878Z,87.77
2023-04-19T11:15:24.303Z,86.40
2023-04-19T11:17:29.465Z,88.82
2023-04-19T11:19:32.601Z,86.67
2023-04-19T11:21:40.732Z,88.31
2023-04-19T11:23:47.795Z,87.49
2023-04-19T11:25:52.599Z,86.97
2023-04-19T11:27:56.104Z,88.11
2023-04-19T11:30:04.346Z,87.36
2023-04-19T11:32:07.581Z,89.82
2023-04-19T11:34:10.722Z,89.60
2023-04-19T11:36:14.212Z,90.43
2023-04-19T11:38:17.290Z,90.98
2023-04-19T11:40:23.263Z,90.28
2023-04-19T11:42:26.391Z,91.79
2023-04-19T11:44:29.489Z,92.37
2023-04-19T11:46:32.893Z,90.86
2023-04-19T11:48:36.069Z,91.63
2023-04-19T11:50:40.069Z,93.90
2023-04-19T11:52:43.190Z,93.40
2023-04-19T11:54:46.992Z,93.16
2023-04-19T11:57:06.105Z,91.63
2023-04-19T11:59:10.595Z,90.45
2023-04-19T12:01:14.988Z,90.87
2023-04-19T12:03:18.413Z,89.76
2023-04-19T12:05:21.941Z,89.30
2023-04-19T12:07:25.357Z,88.22
2023-04-19T12:09:28.402Z,89.65
2023-04-19T12:11:44.105Z,87.85
2023-04-19T12:13:48.803Z,86.95
2023-04-19T12:15:52.282Z,86.75
2023-04-19T12:17:59.717Z,88.23
2023-04-19T12:20:03.620Z,86.09
2023-04-19T12:22:10.820Z,87.62
2023-04-19T12:24:16.694Z,86.25
2023-04-19T12:26:19.965Z,86.44
2023-04-19T12:28:23.926Z,86.59
2023-04-19T12:30:28.654Z,85.14
2023-04-19T12:32:31.783Z,85.25
2023-04-19T12:34:34.972Z,85.99
2023-04-19T12:36:38.141Z,83.46
2023-04-19T12:38:41.351Z,84.21
2023-04-19T12:40:44.455Z,82.61
2023-04-19T12:42:47.730Z,82.95
2023-04-19T12:44:50.946Z,81.92
2023-04-19T12:46:57.607Z,81.76
2023-04-19T12:49:01.025Z,80.66
2023-04-19T12:51:05.727Z,80.46
2023-04-19T12:53:09.484Z,80.73
2023-04-19T12:55:12.760Z,79.78
2023-04-19T12:57:16.216Z,80.28
2023-04-19T12:59:19.500Z,81.40
2023-04-19T13:01:23.605Z,80.46
2023-04-19T13:03:32.938Z,80.08
2023-04-19T13:05:36.350Z,80.63
2023-04-19T13:07:39.447Z,79.58
2023-04-19T13:09:42.539Z,79.72
2023-04-19T13:11:45.607Z,79.89
2023-04-19T13:13:48.672Z,80.38
2023-04-19T13:15:51.848Z,79.07
2023-04-19T13:17:57.263Z,79.68
2023-04-19T13:20:01.875Z,78.59
2023-04-19T13:22:04.945Z,79.36
2023-04-19T13:24:08.449Z,78.31
2023-04-19T13:26:11.965Z,77.96
2023-04-19T13:28:15.172Z,78.01
2023-04-19T13:30:18.494Z,78.32
2023-04-19T13:32:21.926Z,77.79
2023-04-19T13:34:25.156Z,78.32
2023-04-19T13:36:29.703Z,77.85
2023-04-19T13:38:33.142Z,77.32
2023-04-19T13:40:36.281Z,75.64
2023-04-19T13:42:39.546Z,76.44
2023-04-19T13:44:42.719Z,77.42
2023-04-19T13:46:45.853Z,77.02
2023-04-19T13:48:48.955Z,77.59
2023-04-19T13:50:52.620Z,77.16
2023-04-19T13:52:57.523Z,76.93
2023-04-19T13:55:00.701Z,78.05
2023-04-19T13:57:04.215Z,77.46
2023-04-19T13:59:07.623Z,75.65
2023-04-19T14:01:10.807Z,74.54
2023-04-19T14:03:14.089Z,74.41
2023-04-19T14:05:17.320Z,76.44
2023-04-19T14:07:20.715Z,76.70
2023-04-19T14:09:25.695Z,76.14
2023-04-19T14:11:29.110Z,75.67
2023-04-19T14:13:32.250Z,77.07
2023-04-19T14:15:35.387Z,77.21
2023-04-19T14:17:38.607Z,75.68
2023-04-19T14:19:42.245Z,75.07
2023-04-19T14:21:45.533Z,69.74
2023-04-19T14:23:49.042Z,68.66
2023-04-19T14:25:53.835Z,68.65
2023-04-19T14:27:57.242Z,68.37
2023-04-19T14:30:00.555Z,67.60
2023-04-19T14:32:17.190Z,67.59
2023-04-19T14:34:26.932Z,68.33
2023-04-19T14:36:30.128Z,69.56
2023-04-19T14:38:33.820Z,69.10
2023-04-19T14:40:37.129Z,68.26
2023-04-19T14:42:41.601Z,66.41
2023-04-19T14:44:45.779Z,67.05
2023-04-19T14:46:48.846Z,66.29
2023-04-19T14:48:51.993Z,65.84
2023-04-19T14:50:55.176Z,62.87
2023-04-19T14:52:58.340Z,62.99
2023-04-19T14:55:01.461Z,61.77
2023-04-19T14:57:04.812Z,60.38
2023-04-19T14:59:09.195Z,61.19
2023-04-19T15:01:12.962Z,61.17
2023-04-19T15:03:17.177Z,60.98
2023-04-19T15:05:20.930Z,61.19
2023-04-19T15:07:24.299Z,61.38
2023-04-19T15:09:27.462Z,61.95
2023-04-19T15:11:30.630Z,59.41
2023-04-19T15:13:34.017Z,61.94
2023-04-19T15:15:38.614Z,62.00
2023-04-19T15:17:41.766Z,59.18
2023-04-19T15:19:46.917Z,58.50
2023-04-19T15:21:50.208Z,57.61
2023-04-19T15:23:53.369Z,58.20
2023-04-19T15:25:56.841Z,59.85
2023-04-19T15:28:00.047Z,58.74
2023-04-19T15:30:03.718Z,56.57
2023-04-19T15:32:08.971Z,58.26
2023-04-19T15:34:12.065Z,57.11
2023-04-19T15:36:15.347Z,55.71
2023-04-19T15:38:18.448Z,57.13
2023-04-19T15:40:21.707Z,55.24
2023-04-19T15:42:24.899Z,55.30
2023-04-19T15:44:28.020Z,54.72
2023-04-19T15:46:31.232Z,54.08
2023-04-19T15:48:35.641Z,54.71
2023-04-19T15:50:40.838Z,54.89
2023-04-19T15:52:45.398Z,55.05
2023-04-19T15:54:50.387Z,53.82
2023-04-19T15:56:53.469Z,53.64
2023-04-19T15:58:56.745Z,54.22
2023-04-19T16:00:59.828Z,54.18
2023-04-19T16:03:03.320Z,53.46
2023-04-19T16:05:08.994Z,54.21
2023-04-19T16:07:12.094Z,53.75
2023-04-19T16:09:15.383Z,53.36
2023-04-19T16:11:18.656Z,53.40
2023-04-19T16:13:21.783Z,54.46
2023-04-19T16:15:24.983Z,53.94
2023-04-19T16:17:28.351Z,54.88
2023-04-19T16:19:31.564Z,53.07
2023-04-19T16:21:36.167Z,52.70
2023-04-19T16:23:39.337Z,52.83
2023-04-19T16:25:42.548Z,52.50
2023-04-19T16:27:47.391Z,52.42
2023-04-19T16:29:50.498Z,52.27
2023-04-19T16:31:54.106Z,52.83
2023-04-19T16:33:57.249Z,52.96
2023-04-19T16:36:00.306Z,52.81
2023-04-19T16:38:06.996Z,51.98
2023-04-19T16:40:11.905Z,51.74
2023-04-19T16:42:15.394Z,52.22
2023-04-19T16:44:18.585Z,52.22
2023-04-19T16:46:21.911Z,53.10
2023-04-19T16:48:25.110Z,53.34
2023-04-19T16:50:28.503Z,53.31
2023-04-19T16:52:33.632Z,52.89
2023-04-19T16:54:38.168Z,53.75
2023-04-19T16:56:41.336Z,53.84
2023-04-19T16:58:44.399Z,54.06
2023-04-19T17:00:48.302Z,54.73
2023-04-19T17:02:52.055Z,53.50
2023-04-19T17:04:55.545Z,54.23
2023-04-19T17:06:58.764Z,55.31
2023-04-19T17:09:04.928Z,54.57
2023-04-19T17:11:09.400Z,54.70
2023-04-19T17:13:12.587Z,52.90
2023-04-19T17:15:16.431Z,52.99
2023-04-19T17:17:20.161Z,53.49
2023-04-19T17:19:23.332Z,52.63
2023-04-19T17:21:27.530Z,53.43
2023-04-19T17:23:30.689Z,54.48
2023-04-19T17:25:33.831Z,54.64
2023-04-19T17:27:39.056Z,53.96
2023-04-19T17:29:42.113Z,53.50
2023-04-19T17:31:45.229Z,55.03
2023-04-19T17:33:48.320Z,54.13
2023-04-19T17:35:51.588Z,55.37
2023-04-19T17:37:54.659Z,53.96
2023-04-19T17:39:58.031Z,54.88
2023-04-19T17:42:01.713Z,55.06
2023-04-19T17:44:06.557Z,56.70
2023-04-19T17:46:09.967Z,54.21
2023-04-19T17:48:13.221Z,53.77
2023-04-19T17:50:16.564Z,54.75
2023-04-19T17:52:19.625Z,54.31
2023-04-19T17:54:22.666Z,55.57
2023-04-19T17:56:25.905Z,54.47
2023-04-19T17:58:29.046Z,54.82
2023-04-19T18:00:33.581Z,55.37
2023-04-19T18:02:36.862Z,56.27
2023-04-19T18:04:44.583Z,54.92
2023-04-19T18:06:48.111Z,56.61
2023-04-19T18:08:51.297Z,56.77
2023-04-19T18:10:54.474Z,56.00
2023-04-19T18:12:57.790Z,57.86
2023-04-19T18:15:00.965Z,56.51
2023-04-19T18:17:05.654Z,58.43
2023-04-19T18:19:08.669Z,57.56
2023-04-19T18:21:11.965Z,58.36
2023-04-19T18:23:15.003Z,59.12
2023-04-19T18:25:18.262Z,57.19
2023-04-19T18:27:21.510Z,57.95
2023-04-19T18:29:24.807Z,58.62
2023-04-19T18:31:27.974Z,59.52
2023-04-19T18:33:32.546Z,59.44
2023-04-19T18:35:36.658Z,59.20
2023-04-19T18:37:40.003Z,58.58
2023-04-19T18:39:43.127Z,58.95
2023-04-19T18:41:46.241Z,58.92
2023-04-19T18:44:08.162Z,59.64
2023-04-19T18:46:12.385Z,58.98
2023-04-19T18:48:15.595Z,59.49
2023-04-19T18:50:20.503Z,59.31
2023-04-19T18:52:23.696Z,59.53
2023-04-19T18:54:26.908Z,59.70
2023-04-19T18:57:10.969Z,59.12
2023-04-19T18:58:54.253Z,59.66
2023-04-19T19:00:57.771Z,59.87
2023-04-19T19:03:02.863Z,59.35
2023-04-19T19:05:08.406Z,59.42
2023-04-19T19:07:27.667Z,59.82
2023-04-19T19:09:36.873Z,59.31
2023-04-19T19:11:55.454Z,59.33
2023-04-19T19:13:59.509Z,59.05
2023-04-19T19:16:02.702Z,59.44
2023-04-19T19:18:06.447Z,59.06
2023-04-19T19:20:11.013Z,59.08
2023-04-19T19:22:25.648Z,59.64
2023-04-19T19:24:31.684Z,59.47
2023-04-19T19:26:34.811Z,59.67
2023-04-19T19:28:37.908Z,59.18
2023-04-19T19:30:42.886Z,59.74
2023-04-19T19:32:45.981Z,60.70
2023-04-19T19:36:56.119Z,59.78
2023-04-19T19:39:01.078Z,59.67
2023-04-19T19:43:12.344Z,60.82
2023-04-19T19:45:17.509Z,61.11
2023-04-19T19:47:22.136Z,60.81
2023-04-19T19:49:25.409Z,60.15
2023-04-19T19:51:53.220Z,60.03
2023-04-19T19:53:51.793Z,60.14
2023-04-19T19:55:56.893Z,60.13
2023-04-19T19:58:35.002Z,60.45
2023-04-19T20:00:44.021Z,61.23
2023-04-19T20:04:54.290Z,61.56
2023-04-19T20:07:28.834Z,61.51
2023-04-19T20:09:21.347Z,61.45
2023-04-19T20:11:26.049Z,61.25
2023-04-19T20:13:29.066Z,61.47
2023-04-19T20:15:32.201Z,61.38
2023-04-19T20:17:35.554Z,61.54
2023-04-19T20:19:38.724Z,62.24
2023-04-19T20:21:41.917Z,62.66
2023-04-19T20:23:45.086Z,61.50
2023-04-19T20:25:49.422Z,61.96
2023-04-19T20:27:56.498Z,62.11
2023-04-19T20:30:00.697Z,62.36
2023-04-19T20:32:03.955Z,62.08
2023-04-19T20:34:06.990Z,62.17
2023-04-19T20:36:10.536Z,62.09
2023-04-19T20:38:13.679Z,62.63
2023-04-19T20:40:17.752Z,63.13
2023-04-19T20:42:20.974Z,62.36
2023-04-19T20:44:25.399Z,62.85
2023-04-19T20:46:28.860Z,62.92
2023-04-19T20:48:32.012Z,63.37
2023-04-19T20:50:35.211Z,63.43
2023-04-19T20:52:38.306Z,62.92
2023-04-19T20:54:41.610Z,64.80
2023-04-19T20:56:44.699Z,64.45
2023-04-19T20:58:47.735Z,64.60
2023-04-19T21:00:52.255Z,64.05
2023-04-19T21:02:55.422Z,64.44
2023-04-19T21:04:58.611Z,64.79
2023-04-19T21:07:01.868Z,64.89
2023-04-19T21:09:05.105Z,64.98
2023-04-19T21:11:08.214Z,65.05
2023-04-19T21:13:11.358Z,64.91
2023-04-19T21:15:14.437Z,64.57
2023-04-19T21:17:18.889Z,65.97
2023-04-19T21:19:21.950Z,65.03
2023-04-19T21:21:25.183Z,65.61
2023-04-19T21:23:28.307Z,65.31
2023-04-19T21:25:31.431Z,65.19
2023-04-19T21:27:34.753Z,66.38
2023-04-19T21:29:37.769Z,66.26
2023-04-19T21:31:40.904Z,65.76
2023-04-19T21:33:45.289Z,66.33
2023-04-19T21:35:48.376Z,66.20
2023-04-19T21:37:51.538Z,66.54
2023-04-19T21:39:54.658Z,66.86
2023-04-19T21:41:57.777Z,65.77
2023-04-19T21:44:00.892Z,66.00
2023-04-19T21:46:05.127Z,67.05
2023-04-19T21:48:08.656Z,67.41
2023-04-19T21:50:13.237Z,66.74
2023-04-19T21:52:16.327Z,66.87
2023-04-19T21:54:30.697Z,67.50
2023-04-19T21:56:36.275Z,67.91
2023-04-19T21:58:39.477Z,67.19
2023-04-19T22:00:42.574Z,66.43
2023-04-19T22:02:45.850Z,66.89
2023-04-19T22:04:49.965Z,67.53
2023-04-19T22:06:54.291Z,66.69
2023-04-19T22:08:59.275Z,68.26
2023-04-19T22:11:03.588Z,67.65
2023-04-19T22:13:06.680Z,68.26
2023-04-19T22:15:10.659Z,68.46
2023-04-19T22:17:13.668Z,67.41
2023-04-19T22:19:16.989Z,68.62
2023-04-19T22:21:20.194Z,67.93
2023-04-19T22:23:24.633Z,69.10
2023-04-19T22:25:27.724Z,68.73
2023-04-19T22:27:30.786Z,69.12
2023-04-19T22:29:34.361Z,68.63
2023-04-19T22:31:37.425Z,67.81
2023-04-19T22:33:40.628Z,68.34
2023-04-19T22:35:43.615Z,68.20
2023-04-19T22:37:46.584Z,69.53
2023-04-19T22:39:50.975Z,68.94
2023-04-19T22:41:54.060Z,68.68
2023-04-19T22:43:57.055Z,68.32
2023-04-19T22:46:01.053Z,69.52
2023-04-19T22:48:04.419Z,70.03
2023-04-19T22:50:08.917Z,69.10
2023-04-19T22:52:12.798Z,70.20
2023-04-19T22:54:15.951Z,69.62
2023-04-19T22:56:20.365Z,68.34
2023-04-19T22:58:23.383Z,69.37
2023-04-19T23:00:26.724Z,69.98
2023-04-19T23:02:29.849Z,69.05
2023-04-19T23:04:35.033Z,70.02
2023-04-19T23:06:38.217Z,68.94
2023-04-19T23:08:41.383Z,69.98
2023-04-19T23:10:45.299Z,70.13
2023-04-19T23:12:49.733Z,70.03
2023-04-19T23:14:52.708Z,70.12
2023-04-19T23:16:55.798Z,71.42
2023-04-19T23:18:58.784Z,71.43
2023-04-19T23:21:01.830Z,69.93
2023-04-19T23:23:05.187Z,70.47
2023-04-19T23:25:09.429Z,71.95
2023-04-19T23:27:12.729Z,70.25
2023-04-19T23:29:17.301Z,70.62
2023-04-19T23:31:20.450Z,70.65
2023-04-19T23:33:23.679Z,71.87
2023-04-19T23:35:26.838Z,72.56
2023-04-19T23:37:29.899Z,72.38
2023-04-19T23:39:32.895Z,71.39
2023-04-19T23:41:35.951Z,72.90
2023-04-19T23:43:39.134Z,72.52
2023-04-19T23:45:43.567Z,73.11
2023-04-19T23:47:46.662Z,72.79
2023-04-19T23:49:49.807Z,72.76
2023-04-19T23:51:52.834Z,72.06
2023-04-19T23:53:55.974Z,73.66
2023-04-19T23:55:59.070Z,72.66
2023-04-19T23:58:02.102Z,73.19
